sensor_id;sensor_type;location;lat;lon;timestamp;pressure;altitude;pressure_sealevel;temperature;humidity
82476;BME280;72099;43.176;76.872;2024-02-26T00:01:58;90607.84;;;-9.16;76.54
82476;BME280;72099;43.176;76.872;2024-02-26T00:04:59;90619.00;;;-9.10;76.45
82476;BME280;72099;43.176;76.872;2024-02-26T00:08:00;90611.66;;;-9.00;76.30
82476;BME280;72099;43.176;76.872;2024-02-26T00:11:01;90607.56;;;-9.01;75.81
82476;BME280;72099;43.176;76.872;2024-02-26T00:14:02;90599.34;;;-9.03;75.77
82476;BME280;72099;43.176;76.872;2024-02-26T00:17:03;90605.84;;;-9.07;76.55
82476;BME280;72099;43.176;76.872;2024-02-26T00:20:04;90607.41;;;-9.06;76.36
82476;BME280;72099;43.176;76.872;2024-02-26T00:23:09;90609.72;;;-9.05;76.06
82476;BME280;72099;43.176;76.872;2024-02-26T00:26:09;90607.19;;;-9.05;76.00
82476;BME280;72099;43.176;76.872;2024-02-26T00:29:11;90609.09;;;-9.00;76.64
82476;BME280;72099;43.176;76.872;2024-02-26T00:32:12;90615.81;;;-9.06;76.46
82476;BME280;72099;43.176;76.872;2024-02-26T00:35:13;90620.13;;;-9.06;76.64
82476;BME280;72099;43.176;76.872;2024-02-26T00:38:14;90613.50;;;-9.14;76.19
82476;BME280;72099;43.176;76.872;2024-02-26T00:41:16;90621.34;;;-9.09;76.35
82476;BME280;72099;43.176;76.872;2024-02-26T00:44:19;90627.94;;;-9.01;75.93
82476;BME280;72099;43.176;76.872;2024-02-26T00:47:20;90633.44;;;-8.98;75.73
82476;BME280;72099;43.176;76.872;2024-02-26T00:50:21;90642.66;;;-9.03;75.28
82476;BME280;72099;43.176;76.872;2024-02-26T00:53:22;90628.78;;;-9.14;76.29
82476;BME280;72099;43.176;76.872;2024-02-26T00:56:23;90641.13;;;-9.11;75.87
82476;BME280;72099;43.176;76.872;2024-02-26T00:59:24;90645.63;;;-9.13;76.43
82476;BME280;72099;43.176;76.872;2024-02-26T01:02:24;90640.59;;;-9.19;76.61
82476;BME280;72099;43.176;76.872;2024-02-26T01:05:25;90629.41;;;-9.25;76.08
82476;BME280;72099;43.176;76.872;2024-02-26T01:08:27;90644.91;;;-9.20;76.40
82476;BME280;72099;43.176;76.872;2024-02-26T01:11:27;90644.31;;;-9.22;76.04
82476;BME280;72099;43.176;76.872;2024-02-26T01:14:28;90632.38;;;-9.28;76.31
82476;BME280;72099;43.176;76.872;2024-02-26T01:17:29;90627.50;;;-9.30;75.70
82476;BME280;72099;43.176;76.872;2024-02-26T01:20:30;90634.56;;;-9.32;76.38
82476;BME280;72099;43.176;76.872;2024-02-26T01:23:31;90629.88;;;-9.35;76.68
82476;BME280;72099;43.176;76.872;2024-02-26T01:26:32;90574.41;;;-9.71;76.50
82476;BME280;72099;43.176;76.872;2024-02-26T01:29:32;90628.69;;;-9.39;76.12
82476;BME280;72099;43.176;76.872;2024-02-26T01:32:33;90624.00;;;-9.35;76.47
82476;BME280;72099;43.176;76.872;2024-02-26T01:35:36;90621.47;;;-9.35;76.62
82476;BME280;72099;43.176;76.872;2024-02-26T01:38:37;90614.97;;;-9.31;76.42
82476;BME280;72099;43.176;76.872;2024-02-26T01:41:41;90623.97;;;-9.29;76.61
82476;BME280;72099;43.176;76.872;2024-02-26T01:44:42;90623.19;;;-9.29;76.57
82476;BME280;72099;43.176;76.872;2024-02-26T01:47:43;90606.97;;;-9.35;76.99
82476;BME280;72099;43.176;76.872;2024-02-26T01:50:44;90631.59;;;-9.22;76.26
82476;BME280;72099;43.176;76.872;2024-02-26T01:53:45;90628.84;;;-9.27;76.58
82476;BME280;72099;43.176;76.872;2024-02-26T01:56:46;90619.50;;;-9.40;76.46
82476;BME280;72099;43.176;76.872;2024-02-26T01:59:47;90630.25;;;-9.38;76.65
82476;BME280;72099;43.176;76.872;2024-02-26T02:02:48;90641.66;;;-9.40;76.92
82476;BME280;72099;43.176;76.872;2024-02-26T02:05:50;90608.59;;;-9.54;77.22
82476;BME280;72099;43.176;76.872;2024-02-26T02:08:51;90623.66;;;-9.52;76.90
82476;BME280;72099;43.176;76.872;2024-02-26T02:11:52;90627.38;;;-9.48;76.78
82476;BME280;72099;43.176;76.872;2024-02-26T02:14:53;90620.91;;;-9.44;77.29
82476;BME280;72099;43.176;76.872;2024-02-26T02:17:54;90619.53;;;-9.46;76.80
82476;BME280;72099;43.176;76.872;2024-02-26T02:20:55;90616.19;;;-9.40;76.95
82476;BME280;72099;43.176;76.872;2024-02-26T02:23:57;90620.22;;;-9.26;77.01
82476;BME280;72099;43.176;76.872;2024-02-26T02:26:57;90623.38;;;-9.31;77.13
82476;BME280;72099;43.176;76.872;2024-02-26T02:29:59;90625.56;;;-9.34;76.80
82476;BME280;72099;43.176;76.872;2024-02-26T02:32:59;90629.09;;;-9.35;77.14
82476;BME280;72099;43.176;76.872;2024-02-26T02:36:00;90625.16;;;-9.38;77.08
82476;BME280;72099;43.176;76.872;2024-02-26T02:39:01;90619.13;;;-9.43;77.01
82476;BME280;72099;43.176;76.872;2024-02-26T02:42:04;90634.19;;;-9.35;77.11
82476;BME280;72099;43.176;76.872;2024-02-26T02:45:05;90621.28;;;-9.40;77.01
82476;BME280;72099;43.176;76.872;2024-02-26T02:48:06;90635.34;;;-9.38;77.01
82476;BME280;72099;43.176;76.872;2024-02-26T02:51:07;90612.34;;;-9.56;77.25
82476;BME280;72099;43.176;76.872;2024-02-26T02:54:08;90632.22;;;-9.33;77.19
82476;BME280;72099;43.176;76.872;2024-02-26T02:57:09;90640.03;;;-9.28;77.47
82476;BME280;72099;43.176;76.872;2024-02-26T03:00:10;90641.78;;;-9.29;77.02
82476;BME280;72099;43.176;76.872;2024-02-26T03:03:11;90641.22;;;-9.31;76.77
82476;BME280;72099;43.176;76.872;2024-02-26T03:06:12;90634.50;;;-9.18;77.33
82476;BME280;72099;43.176;76.872;2024-02-26T03:09:13;90642.50;;;-9.15;76.92
82476;BME280;72099;43.176;76.872;2024-02-26T03:12:14;90641.38;;;-9.19;77.03
82476;BME280;72099;43.176;76.872;2024-02-26T03:15:15;90637.88;;;-9.31;76.81
82476;BME280;72099;43.176;76.872;2024-02-26T03:18:15;90648.06;;;-9.31;77.36
82476;BME280;72099;43.176;76.872;2024-02-26T03:21:17;90643.50;;;-9.16;77.29
82476;BME280;72099;43.176;76.872;2024-02-26T03:24:18;90635.13;;;-8.92;77.39
82476;BME280;72099;43.176;76.872;2024-02-26T03:27:19;90637.59;;;-8.78;76.51
82476;BME280;72099;43.176;76.872;2024-02-26T03:30:20;90643.47;;;-8.71;76.33
82476;BME280;72099;43.176;76.872;2024-02-26T03:33:20;90632.47;;;-8.72;77.27
82476;BME280;72099;43.176;76.872;2024-02-26T03:36:22;90629.09;;;-8.66;77.26
82476;BME280;72099;43.176;76.872;2024-02-26T03:39:22;90634.25;;;-8.47;76.19
82476;BME280;72099;43.176;76.872;2024-02-26T03:42:23;90629.53;;;-8.44;77.16
82476;BME280;72099;43.176;76.872;2024-02-26T03:45:24;90629.16;;;-8.47;76.78
82476;BME280;72099;43.176;76.872;2024-02-26T03:48:26;90633.28;;;-8.46;75.75
82476;BME280;72099;43.176;76.872;2024-02-26T03:51:27;90618.84;;;-8.34;77.14
82476;BME280;72099;43.176;76.872;2024-02-26T03:54:31;90619.22;;;-8.12;76.25
82476;BME280;72099;43.176;76.872;2024-02-26T03:57:32;90627.28;;;-7.90;75.07
82476;BME280;72099;43.176;76.872;2024-02-26T04:00:33;90630.13;;;-7.80;76.36
82476;BME280;72099;43.176;76.872;2024-02-26T04:03:34;90624.16;;;-7.74;75.54
82476;BME280;72099;43.176;76.872;2024-02-26T04:06:35;90636.25;;;-7.81;74.13
82476;BME280;72099;43.176;76.872;2024-02-26T04:09:36;90643.03;;;-7.75;74.47
82476;BME280;72099;43.176;76.872;2024-02-26T04:12:41;90639.41;;;-7.86;74.02
82476;BME280;72099;43.176;76.872;2024-02-26T04:15:42;90638.06;;;-7.88;73.90
82476;BME280;72099;43.176;76.872;2024-02-26T04:18:43;90639.97;;;-7.84;74.21
82476;BME280;72099;43.176;76.872;2024-02-26T04:21:44;90616.00;;;-8.01;74.69
82476;BME280;72099;43.176;76.872;2024-02-26T04:24:45;90639.84;;;-7.70;75.12
82476;BME280;72099;43.176;76.872;2024-02-26T04:27:45;90614.03;;;-7.62;74.75
82476;BME280;72099;43.176;76.872;2024-02-26T04:34:14;90629.59;;;-6.97;73.28
82476;BME280;72099;43.176;76.872;2024-02-26T04:37:15;90627.84;;;-6.85;72.47
82476;BME280;72099;43.176;76.872;2024-02-26T04:40:16;90628.22;;;-6.70;73.21
82476;BME280;72099;43.176;76.872;2024-02-26T04:43:17;90617.16;;;-6.52;73.19
82476;BME280;72099;43.176;76.872;2024-02-26T04:46:18;90614.38;;;-6.39;72.01
82476;BME280;72099;43.176;76.872;2024-02-26T04:49:19;90624.78;;;-6.22;72.44
82476;BME280;72099;43.176;76.872;2024-02-26T04:52:20;90620.00;;;-6.18;71.73
82476;BME280;72099;43.176;76.872;2024-02-26T04:55:21;90617.69;;;-6.08;71.73
82476;BME280;72099;43.176;76.872;2024-02-26T04:58:22;90617.47;;;-5.95;71.43
82476;BME280;72099;43.176;76.872;2024-02-26T05:01:22;90611.00;;;-5.98;71.08
82476;BME280;72099;43.176;76.872;2024-02-26T05:04:23;90614.66;;;-5.82;71.00
82476;BME280;72099;43.176;76.872;2024-02-26T05:07:24;90611.16;;;-5.64;70.28
82476;BME280;72099;43.176;76.872;2024-02-26T05:10:25;90613.25;;;-5.49;70.19
82476;BME280;72099;43.176;76.872;2024-02-26T05:13:26;90602.00;;;-5.48;69.22
82476;BME280;72099;43.176;76.872;2024-02-26T05:16:27;90609.28;;;-5.45;69.40
82476;BME280;72099;43.176;76.872;2024-02-26T05:19:28;90616.88;;;-5.22;68.56
82476;BME280;72099;43.176;76.872;2024-02-26T05:22:49;90606.72;;;-5.05;68.16
82476;BME280;72099;43.176;76.872;2024-02-26T05:25:51;90614.59;;;-4.95;67.92
82476;BME280;72099;43.176;76.872;2024-02-26T05:28:51;90609.91;;;-4.98;68.04
82476;BME280;72099;43.176;76.872;2024-02-26T05:32:15;90608.03;;;-5.02;68.09
82476;BME280;72099;43.176;76.872;2024-02-26T05:35:16;90613.16;;;-5.02;66.75
82476;BME280;72099;43.176;76.872;2024-02-26T05:38:17;90612.13;;;-4.90;66.65
82476;BME280;72099;43.176;76.872;2024-02-26T05:41:18;90597.16;;;-4.81;67.26
82476;BME280;72099;43.176;76.872;2024-02-26T05:44:26;90606.22;;;-4.62;66.83
82476;BME280;72099;43.176;76.872;2024-02-26T05:47:27;90605.91;;;-4.49;65.67
82476;BME280;72099;43.176;76.872;2024-02-26T05:50:28;90606.09;;;-4.38;65.29
82476;BME280;72099;43.176;76.872;2024-02-26T05:53:28;90600.47;;;-4.52;65.78
82476;BME280;72099;43.176;76.872;2024-02-26T05:56:29;90593.78;;;-4.53;64.98
82476;BME280;72099;43.176;76.872;2024-02-26T05:59:30;90599.22;;;-4.50;65.58
82476;BME280;72099;43.176;76.872;2024-02-26T06:05:57;90598.09;;;-4.42;64.86
82476;BME280;72099;43.176;76.872;2024-02-26T06:08:57;90601.44;;;-4.41;64.26
82476;BME280;72099;43.176;76.872;2024-02-26T06:11:58;90594.97;;;-4.27;64.12
82476;BME280;72099;43.176;76.872;2024-02-26T06:14:59;90601.97;;;-4.23;64.14
82476;BME280;72099;43.176;76.872;2024-02-26T06:18:01;90604.31;;;-4.38;64.34
82476;BME280;72099;43.176;76.872;2024-02-26T06:21:02;90607.19;;;-4.34;63.83
82476;BME280;72099;43.176;76.872;2024-02-26T06:24:03;90603.69;;;-4.28;63.75
82476;BME280;72099;43.176;76.872;2024-02-26T06:27:04;90607.41;;;-4.36;63.63
82476;BME280;72099;43.176;76.872;2024-02-26T06:30:06;90595.09;;;-4.51;63.64
82476;BME280;72099;43.176;76.872;2024-02-26T06:33:07;90600.97;;;-4.38;64.54
82476;BME280;72099;43.176;76.872;2024-02-26T06:36:08;90592.47;;;-4.22;63.68
82476;BME280;72099;43.176;76.872;2024-02-26T06:39:09;90592.34;;;-4.16;63.93
82476;BME280;72099;43.176;76.872;2024-02-26T06:42:11;90596.84;;;-4.23;62.88
82476;BME280;72099;43.176;76.872;2024-02-26T06:45:12;90578.50;;;-4.14;63.69
82476;BME280;72099;43.176;76.872;2024-02-26T06:48:13;90568.22;;;-4.14;62.99
82476;BME280;72099;43.176;76.872;2024-02-26T06:51:14;90577.69;;;-3.98;62.40
82476;BME280;72099;43.176;76.872;2024-02-26T06:54:15;90575.97;;;-3.76;63.57
82476;BME280;72099;43.176;76.872;2024-02-26T06:57:16;90571.06;;;-3.77;62.94
82476;BME280;72099;43.176;76.872;2024-02-26T07:00:17;90548.47;;;-3.75;62.47
82476;BME280;72099;43.176;76.872;2024-02-26T07:03:18;90563.63;;;-3.35;61.95
82476;BME280;72099;43.176;76.872;2024-02-26T07:06:19;90558.00;;;-3.10;62.06
82476;BME280;72099;43.176;76.872;2024-02-26T07:09:20;90554.31;;;-2.92;61.38
82476;BME280;72099;43.176;76.872;2024-02-26T07:12:20;90559.31;;;-2.86;60.71
82476;BME280;72099;43.176;76.872;2024-02-26T07:15:21;90557.44;;;-2.90;60.38
82476;BME280;72099;43.176;76.872;2024-02-26T07:18:22;90554.94;;;-3.07;60.23
82476;BME280;72099;43.176;76.872;2024-02-26T07:21:24;90548.75;;;-3.33;60.97
82476;BME280;72099;43.176;76.872;2024-02-26T07:24:25;90561.09;;;-3.30;60.64
82476;BME280;72099;43.176;76.872;2024-02-26T07:27:26;90560.94;;;-3.45;60.90
82476;BME280;72099;43.176;76.872;2024-02-26T07:30:26;90553.81;;;-3.38;60.57
82476;BME280;72099;43.176;76.872;2024-02-26T07:33:27;90559.31;;;-3.30;59.95
82476;BME280;72099;43.176;76.872;2024-02-26T07:36:28;90555.06;;;-3.41;61.14
82476;BME280;72099;43.176;76.872;2024-02-26T07:39:29;90561.72;;;-3.45;61.04
82476;BME280;72099;43.176;76.872;2024-02-26T07:42:30;90535.81;;;-3.60;60.39
82476;BME280;72099;43.176;76.872;2024-02-26T07:45:30;90557.94;;;-3.59;60.28
82476;BME280;72099;43.176;76.872;2024-02-26T07:48:31;90558.22;;;-3.56;60.95
82476;BME280;72099;43.176;76.872;2024-02-26T07:51:32;90559.00;;;-3.55;60.34
82476;BME280;72099;43.176;76.872;2024-02-26T07:54:33;90556.97;;;-3.53;60.72
82476;BME280;72099;43.176;76.872;2024-02-26T07:57:34;90554.44;;;-3.70;60.96
82476;BME280;72099;43.176;76.872;2024-02-26T08:00:34;90557.41;;;-3.61;61.38
82476;BME280;72099;43.176;76.872;2024-02-26T08:03:37;90537.22;;;-3.69;60.64
82476;BME280;72099;43.176;76.872;2024-02-26T08:06:38;90543.22;;;-3.64;60.62
82476;BME280;72099;43.176;76.872;2024-02-26T08:09:39;90549.31;;;-3.70;61.23
82476;BME280;72099;43.176;76.872;2024-02-26T08:12:40;90544.56;;;-3.78;61.21
82476;BME280;72099;43.176;76.872;2024-02-26T08:15:41;90539.91;;;-3.81;61.14
82476;BME280;72099;43.176;76.872;2024-02-26T08:18:42;90530.69;;;-3.99;60.56
82476;BME280;72099;43.176;76.872;2024-02-26T08:21:43;90540.84;;;-3.87;61.62
82476;BME280;72099;43.176;76.872;2024-02-26T08:24:44;90534.38;;;-3.73;60.77
82476;BME280;72099;43.176;76.872;2024-02-26T08:27:45;90541.34;;;-3.68;59.98
82476;BME280;72099;43.176;76.872;2024-02-26T08:30:47;90526.31;;;-3.98;61.07
82476;BME280;72099;43.176;76.872;2024-02-26T08:33:48;90534.69;;;-3.86;61.34
82476;BME280;72099;43.176;76.872;2024-02-26T08:36:49;90541.28;;;-3.73;60.32
82476;BME280;72099;43.176;76.872;2024-02-26T08:39:51;90540.56;;;-3.69;60.95
82476;BME280;72099;43.176;76.872;2024-02-26T08:42:52;90533.78;;;-3.58;61.42
82476;BME280;72099;43.176;76.872;2024-02-26T08:45:52;90538.31;;;-3.43;60.61
82476;BME280;72099;43.176;76.872;2024-02-26T08:48:53;90535.25;;;-3.40;61.21
82476;BME280;72099;43.176;76.872;2024-02-26T08:51:54;90540.06;;;-3.49;61.20
82476;BME280;72099;43.176;76.872;2024-02-26T08:54:55;90533.34;;;-3.72;60.63
82476;BME280;72099;43.176;76.872;2024-02-26T08:57:56;90545.47;;;-3.67;60.68
82476;BME280;72099;43.176;76.872;2024-02-26T09:00:57;90518.16;;;-3.73;60.88
82476;BME280;72099;43.176;76.872;2024-02-26T09:03:57;90541.50;;;-3.58;61.44
82476;BME280;72099;43.176;76.872;2024-02-26T09:06:58;90541.72;;;-3.60;60.61
82476;BME280;72099;43.176;76.872;2024-02-26T09:09:59;90543.00;;;-3.79;61.15
82476;BME280;72099;43.176;76.872;2024-02-26T09:13:03;90538.63;;;-3.78;60.18
82476;BME280;72099;43.176;76.872;2024-02-26T09:16:05;90537.50;;;-4.04;60.29
82476;BME280;72099;43.176;76.872;2024-02-26T09:19:06;90534.03;;;-4.15;61.15
82476;BME280;72099;43.176;76.872;2024-02-26T09:25:35;90531.81;;;-4.28;60.80
82476;BME280;72099;43.176;76.872;2024-02-26T09:28:36;90543.00;;;-4.34;62.19
82476;BME280;72099;43.176;76.872;2024-02-26T09:31:37;90534.03;;;-4.32;62.24
82476;BME280;72099;43.176;76.872;2024-02-26T09:34:41;90514.22;;;-4.53;61.33
82476;BME280;72099;43.176;76.872;2024-02-26T09:37:42;90524.00;;;-4.50;62.64
82476;BME280;72099;43.176;76.872;2024-02-26T09:40:44;90535.13;;;-4.61;62.29
82476;BME280;72099;43.176;76.872;2024-02-26T09:43:45;90526.50;;;-4.55;63.19
82476;BME280;72099;43.176;76.872;2024-02-26T09:46:50;90527.34;;;-4.50;61.57
82476;BME280;72099;43.176;76.872;2024-02-26T09:49:53;90530.47;;;-4.64;62.07
82476;BME280;72099;43.176;76.872;2024-02-26T09:56:26;90527.72;;;-4.58;63.14
82476;BME280;72099;43.176;76.872;2024-02-26T09:59:27;90535.44;;;-4.58;63.29
82476;BME280;72099;43.176;76.872;2024-02-26T10:02:28;90539.13;;;-4.82;63.55
82476;BME280;72099;43.176;76.872;2024-02-26T10:05:32;90538.03;;;-4.86;63.74
82476;BME280;72099;43.176;76.872;2024-02-26T10:08:35;90527.19;;;-4.77;62.67
82476;BME280;72099;43.176;76.872;2024-02-26T10:11:38;90528.78;;;-4.87;63.24
82476;BME280;72099;43.176;76.872;2024-02-26T10:14:39;90534.28;;;-4.95;63.11
82476;BME280;72099;43.176;76.872;2024-02-26T10:17:40;90533.91;;;-5.04;63.38
82476;BME280;72099;43.176;76.872;2024-02-26T10:20:41;90549.78;;;-5.19;63.90
82476;BME280;72099;43.176;76.872;2024-02-26T10:23:42;90544.66;;;-5.19;63.90
82476;BME280;72099;43.176;76.872;2024-02-26T10:26:46;90545.84;;;-5.10;64.28
82476;BME280;72099;43.176;76.872;2024-02-26T10:29:47;90548.31;;;-5.15;64.24
82476;BME280;72099;43.176;76.872;2024-02-26T10:32:49;90548.13;;;-5.25;64.87
82476;BME280;72099;43.176;76.872;2024-02-26T10:35:50;90544.03;;;-5.38;64.36
82476;BME280;72099;43.176;76.872;2024-02-26T10:38:51;90541.94;;;-5.41;64.33
82476;BME280;72099;43.176;76.872;2024-02-26T10:41:53;90547.84;;;-5.40;65.14
82476;BME280;72099;43.176;76.872;2024-02-26T10:44:54;90543.91;;;-5.59;65.22
82476;BME280;72099;43.176;76.872;2024-02-26T10:47:55;90542.81;;;-5.87;65.54
82476;BME280;72099;43.176;76.872;2024-02-26T10:50:57;90545.75;;;-5.95;65.79
82476;BME280;72099;43.176;76.872;2024-02-26T10:53:59;90548.66;;;-6.03;65.65
82476;BME280;72099;43.176;76.872;2024-02-26T10:57:05;90540.75;;;-6.13;65.85
82476;BME280;72099;43.176;76.872;2024-02-26T11:00:07;90531.63;;;-6.21;66.92
82476;BME280;72099;43.176;76.872;2024-02-26T11:03:14;90535.44;;;-6.12;65.87
82476;BME280;72099;43.176;76.872;2024-02-26T11:06:19;90528.53;;;-6.11;65.45
82476;BME280;72099;43.176;76.872;2024-02-26T11:09:24;90518.81;;;-6.09;66.38
82476;BME280;72099;43.176;76.872;2024-02-26T11:12:28;90517.06;;;-6.20;65.88
82476;BME280;72099;43.176;76.872;2024-02-26T11:15:30;90521.50;;;-6.28;66.61
82476;BME280;72099;43.176;76.872;2024-02-26T11:18:34;90520.06;;;-6.47;67.22
82476;BME280;72099;43.176;76.872;2024-02-26T11:21:35;90516.03;;;-6.43;66.45
82476;BME280;72099;43.176;76.872;2024-02-26T11:24:40;90507.91;;;-6.40;66.80
82476;BME280;72099;43.176;76.872;2024-02-26T11:27:54;90497.13;;;-6.42;66.55
82476;BME280;72099;43.176;76.872;2024-02-26T11:30:58;90503.94;;;-6.36;66.68
82476;BME280;72099;43.176;76.872;2024-02-26T11:34:00;90505.13;;;-6.38;66.97
82476;BME280;72099;43.176;76.872;2024-02-26T11:37:17;90504.94;;;-6.37;66.87
82476;BME280;72099;43.176;76.872;2024-02-26T11:40:18;90512.03;;;-6.39;67.53
82476;BME280;72099;43.176;76.872;2024-02-26T11:43:23;90513.94;;;-6.58;66.92
82476;BME280;72099;43.176;76.872;2024-02-26T11:46:44;90511.69;;;-6.66;68.44
82476;BME280;72099;43.176;76.872;2024-02-26T11:49:46;90510.91;;;-6.66;67.59
82476;BME280;72099;43.176;76.872;2024-02-26T11:56:45;90522.25;;;-6.74;67.89
82476;BME280;72099;43.176;76.872;2024-02-26T11:59:46;90516.13;;;-6.73;68.16
82476;BME280;72099;43.176;76.872;2024-02-26T12:06:18;90529.66;;;-6.96;69.00
82476;BME280;72099;43.176;76.872;2024-02-26T12:09:41;90510.16;;;-7.08;67.79
82476;BME280;72099;43.176;76.872;2024-02-26T12:16:08;90543.50;;;-7.03;68.43
82476;BME280;72099;43.176;76.872;2024-02-26T12:19:09;90535.25;;;-7.17;69.10
82476;BME280;72099;43.176;76.872;2024-02-26T12:22:13;90551.28;;;-7.10;69.43
82476;BME280;72099;43.176;76.872;2024-02-26T12:25:14;90561.59;;;-7.17;69.35
82476;BME280;72099;43.176;76.872;2024-02-26T12:28:15;90566.47;;;-7.27;68.70
82476;BME280;72099;43.176;76.872;2024-02-26T12:31:45;90567.41;;;-7.39;69.13
82476;BME280;72099;43.176;76.872;2024-02-26T12:34:46;90563.03;;;-7.51;69.68
82476;BME280;72099;43.176;76.872;2024-02-26T12:37:48;90568.19;;;-7.57;69.66
82476;BME280;72099;43.176;76.872;2024-02-26T12:40:49;90571.53;;;-7.57;71.03
82476;BME280;72099;43.176;76.872;2024-02-26T12:43:50;90572.31;;;-7.56;69.75
82476;BME280;72099;43.176;76.872;2024-02-26T12:47:00;90583.28;;;-7.56;70.77
82476;BME280;72099;43.176;76.872;2024-02-26T12:50:03;90584.28;;;-7.57;70.33
82476;BME280;72099;43.176;76.872;2024-02-26T12:53:05;90596.03;;;-7.67;71.01
82476;BME280;72099;43.176;76.872;2024-02-26T12:56:07;90591.53;;;-7.72;69.69
82476;BME280;72099;43.176;76.872;2024-02-26T12:59:09;90598.91;;;-7.82;70.48
82476;BME280;72099;43.176;76.872;2024-02-26T13:02:10;90584.50;;;-7.58;71.48
82476;BME280;72099;43.176;76.872;2024-02-26T13:05:13;90599.75;;;-7.15;71.72
82476;BME280;72099;43.176;76.872;2024-02-26T13:08:21;90596.56;;;-6.99;72.32
82476;BME280;72099;43.176;76.872;2024-02-26T13:11:22;90564.25;;;-7.23;72.09
82476;BME280;72099;43.176;76.872;2024-02-26T13:14:23;90594.91;;;-6.93;72.71
82476;BME280;72099;43.176;76.872;2024-02-26T13:17:24;90599.00;;;-6.62;74.51
82476;BME280;72099;43.176;76.872;2024-02-26T13:20:29;90605.59;;;-6.43;75.43
82476;BME280;72099;43.176;76.872;2024-02-26T13:23:30;90597.63;;;-6.35;75.28
82476;BME280;72099;43.176;76.872;2024-02-26T13:26:31;90603.72;;;-6.77;74.24
82476;BME280;72099;43.176;76.872;2024-02-26T13:29:32;90605.53;;;-6.66;75.58
82476;BME280;72099;43.176;76.872;2024-02-26T13:36:05;90595.19;;;-7.13;75.55
82476;BME280;72099;43.176;76.872;2024-02-26T13:39:05;90608.34;;;-7.28;74.58
82476;BME280;72099;43.176;76.872;2024-02-26T13:42:08;90605.88;;;-7.53;75.45
82476;BME280;72099;43.176;76.872;2024-02-26T13:45:09;90608.56;;;-7.66;74.82
82476;BME280;72099;43.176;76.872;2024-02-26T13:48:11;90609.91;;;-7.82;74.71
82476;BME280;72099;43.176;76.872;2024-02-26T13:51:12;90602.75;;;-7.91;74.67
82476;BME280;72099;43.176;76.872;2024-02-26T13:54:13;90587.63;;;-8.11;74.81
82476;BME280;72099;43.176;76.872;2024-02-26T13:57:15;90608.91;;;-7.99;73.74
82476;BME280;72099;43.176;76.872;2024-02-26T14:00:16;90614.56;;;-7.97;74.57
82476;BME280;72099;43.176;76.872;2024-02-26T14:03:17;90604.09;;;-8.07;73.45
82476;BME280;72099;43.176;76.872;2024-02-26T14:06:19;90606.91;;;-8.15;74.64
82476;BME280;72099;43.176;76.872;2024-02-26T14:09:20;90606.69;;;-8.14;74.11
82476;BME280;72099;43.176;76.872;2024-02-26T14:12:21;90608.59;;;-8.09;72.95
82476;BME280;72099;43.176;76.872;2024-02-26T14:15:22;90617.41;;;-8.05;74.34
82476;BME280;72099;43.176;76.872;2024-02-26T14:18:24;90607.78;;;-8.03;73.06
82476;BME280;72099;43.176;76.872;2024-02-26T14:21:25;90603.00;;;-7.99;73.08
82476;BME280;72099;43.176;76.872;2024-02-26T14:24:27;90608.53;;;-8.03;73.97
82476;BME280;72099;43.176;76.872;2024-02-26T14:27:28;90602.44;;;-8.02;73.14
82476;BME280;72099;43.176;76.872;2024-02-26T14:30:29;90609.69;;;-7.98;72.42
82476;BME280;72099;43.176;76.872;2024-02-26T14:33:30;90608.34;;;-8.01;73.44
82476;BME280;72099;43.176;76.872;2024-02-26T14:36:31;90607.59;;;-8.08;73.61
82476;BME280;72099;43.176;76.872;2024-02-26T14:39:32;90615.13;;;-8.13;73.26
82476;BME280;72099;43.176;76.872;2024-02-26T14:42:33;90612.47;;;-8.25;72.78
82476;BME280;72099;43.176;76.872;2024-02-26T14:45:34;90618.13;;;-8.23;73.98
82476;BME280;72099;43.176;76.872;2024-02-26T14:48:35;90615.44;;;-8.28;74.07
82476;BME280;72099;43.176;76.872;2024-02-26T14:51:36;90617.16;;;-8.22;73.11
82476;BME280;72099;43.176;76.872;2024-02-26T14:54:37;90623.19;;;-8.16;73.72
82476;BME280;72099;43.176;76.872;2024-02-26T14:57:39;90616.38;;;-8.22;74.40
82476;BME280;72099;43.176;76.872;2024-02-26T15:00:40;90609.34;;;-8.27;72.87
82476;BME280;72099;43.176;76.872;2024-02-26T15:03:40;90591.00;;;-8.36;73.47
82476;BME280;72099;43.176;76.872;2024-02-26T15:06:41;90606.38;;;-8.24;74.80
82476;BME280;72099;43.176;76.872;2024-02-26T15:09:42;90595.47;;;-8.31;73.13
82476;BME280;72099;43.176;76.872;2024-02-26T15:13:11;90604.38;;;-8.22;73.83
82476;BME280;72099;43.176;76.872;2024-02-26T15:16:18;90603.25;;;-8.26;73.75
82476;BME280;72099;43.176;76.872;2024-02-26T15:19:21;90608.34;;;-8.26;74.13
82476;BME280;72099;43.176;76.872;2024-02-26T15:22:21;90605.59;;;-8.24;74.19
82476;BME280;72099;43.176;76.872;2024-02-26T15:25:22;90612.81;;;-8.21;73.86
82476;BME280;72099;43.176;76.872;2024-02-26T15:28:23;90598.50;;;-8.22;75.21
82476;BME280;72099;43.176;76.872;2024-02-26T15:31:27;90583.69;;;-8.32;73.95
82476;BME280;72099;43.176;76.872;2024-02-26T15:34:28;90601.22;;;-8.17;73.55
82476;BME280;72099;43.176;76.872;2024-02-26T15:37:29;90595.22;;;-8.05;74.79
82476;BME280;72099;43.176;76.872;2024-02-26T15:40:30;90602.88;;;-8.05;73.51
82476;BME280;72099;43.176;76.872;2024-02-26T15:43:31;90599.91;;;-8.02;75.34
82476;BME280;72099;43.176;76.872;2024-02-26T15:46:32;90608.53;;;-8.03;74.04
82476;BME280;72099;43.176;76.872;2024-02-26T15:49:33;90615.69;;;-8.11;74.54
82476;BME280;72099;43.176;76.872;2024-02-26T15:52:34;90604.00;;;-8.19;74.80
82476;BME280;72099;43.176;76.872;2024-02-26T15:55:35;90606.69;;;-8.14;74.68
82476;BME280;72099;43.176;76.872;2024-02-26T15:58:36;90611.56;;;-8.12;73.60
82476;BME280;72099;43.176;76.872;2024-02-26T16:01:38;90626.31;;;-8.14;73.63
82476;BME280;72099;43.176;76.872;2024-02-26T16:04:39;90635.59;;;-8.20;74.94
82476;BME280;72099;43.176;76.872;2024-02-26T16:07:43;90633.44;;;-8.23;74.10
82476;BME280;72099;43.176;76.872;2024-02-26T16:10:47;90624.78;;;-8.22;74.32
82476;BME280;72099;43.176;76.872;2024-02-26T16:13:50;90633.31;;;-8.28;74.73
82476;BME280;72099;43.176;76.872;2024-02-26T16:17:24;90629.13;;;-8.22;73.98
82476;BME280;72099;43.176;76.872;2024-02-26T16:20:25;90627.88;;;-8.13;74.11